createdAt,value
2023-02-20T00:00:34.283Z,101119.00
2023-02-20T00:03:00.749Z,101109.00
2023-02-20T00:05:27.339Z,101102.00
2023-02-20T00:07:53.868Z,101121.00
2023-02-20T00:10:24.245Z,101117.00
2023-02-20T00:12:52.205Z,101111.00
2023-02-20T00:15:19.786Z,101104.00
2023-02-20T00:17:49.910Z,101085.00
2023-02-20T00:20:18.805Z,101104.00
2023-02-20T00:22:45.585Z,101094.00
2023-02-20T00:25:12.169Z,101091.00
2023-02-20T00:27:38.717Z,101107.00
2023-02-20T00:30:06.047Z,101090.00
2023-02-20T00:32:32.610Z,101082.00
2023-02-20T00:35:01.320Z,101079.00
2023-02-20T00:37:27.883Z,101067.00
2023-02-20T00:39:54.359Z,101067.00
2023-02-20T00:42:21.196Z,101077.00
2023-02-20T00:44:47.738Z,101068.00
2023-02-20T00:47:14.331Z,101066.00
2023-02-20T00:49:40.886Z,101066.00
2023-02-20T00:52:14.956Z,101067.00
2023-02-20T00:54:41.800Z,101060.00
2023-02-20T00:57:08.357Z,101064.00
2023-02-20T00:59:34.957Z,101064.00
2023-02-20T01:02:01.627Z,101060.00
2023-02-20T01:04:28.259Z,101051.00
2023-02-20T01:06:54.820Z,101047.00
2023-02-20T01:09:21.471Z,101047.00
2023-02-20T01:11:48.358Z,101037.00
2023-02-20T01:14:14.960Z,101036.00
2023-02-20T01:16:46.049Z,101024.00
2023-02-20T01:19:13.294Z,101035.00
2023-02-20T01:21:39.839Z,101033.00
2023-02-20T01:24:06.628Z,101032.00
2023-02-20T01:26:33.168Z,101032.00
2023-02-20T01:28:59.765Z,101018.00
2023-02-20T01:31:26.389Z,101023.00
2023-02-20T01:33:52.952Z,101021.00
2023-02-20T01:36:20.806Z,101013.00
2023-02-20T01:38:48.543Z,100993.00
2023-02-20T01:41:15.183Z,100983.00
2023-02-20T01:43:41.797Z,100995.00
2023-02-20T01:46:26.797Z,100985.00
2023-02-20T01:49:03.788Z,100988.00
2023-02-20T01:51:35.042Z,100990.00
2023-02-20T01:54:02.595Z,100986.00
2023-02-20T01:56:29.125Z,100952.00
2023-02-20T01:58:55.764Z,100937.00
2023-02-20T02:01:22.418Z,100933.00
2023-02-20T02:03:53.009Z,100934.00
2023-02-20T02:06:19.584Z,100934.00
2023-02-20T02:08:46.444Z,100939.00
2023-02-20T02:11:15.950Z,100934.00
2023-02-20T02:13:43.357Z,100928.00
2023-02-20T02:16:18.857Z,100932.00
2023-02-20T02:19:14.892Z,100930.00
2023-02-20T02:22:05.033Z,100937.00
2023-02-20T02:24:54.843Z,100943.00
2023-02-20T02:27:22.229Z,100933.00
2023-02-20T02:30:17.214Z,100923.00
2023-02-20T02:33:08.581Z,100928.00
2023-02-20T02:35:53.913Z,100920.00
2023-02-20T02:38:56.830Z,100923.00
2023-02-20T02:41:44.604Z,100908.00
2023-02-20T02:44:18.549Z,100902.00
2023-02-20T02:47:04.272Z,100900.00
2023-02-20T02:49:42.991Z,100900.00
2023-02-20T02:52:09.763Z,100884.00
2023-02-20T02:54:36.360Z,100888.00
2023-02-20T02:57:19.661Z,100879.00
2023-02-20T02:59:47.594Z,100878.00
2023-02-20T03:02:15.767Z,100883.00
2023-02-20T03:04:43.925Z,100873.00
2023-02-20T03:07:12.608Z,100871.00
2023-02-20T03:09:43.854Z,100867.00
2023-02-20T03:12:13.045Z,100864.00
2023-02-20T03:15:10.693Z,100859.00
2023-02-20T03:17:40.611Z,100859.00
2023-02-20T03:20:11.256Z,100855.00
2023-02-20T03:22:45.139Z,100852.00
2023-02-20T03:25:22.668Z,100846.00
2023-02-20T03:27:59.774Z,100851.00
2023-02-20T03:30:50.028Z,100827.00
2023-02-20T03:33:44.401Z,100827.00
2023-02-20T03:36:32.588Z,100831.00
2023-02-20T03:39:24.945Z,100810.00
2023-02-20T03:42:12.078Z,100804.00
2023-02-20T03:44:44.856Z,100804.00
2023-02-20T03:47:55.678Z,100797.00
2023-02-20T03:50:22.700Z,100791.00
2023-02-20T03:52:50.499Z,100798.00
2023-02-20T03:55:17.080Z,100800.00
2023-02-20T03:57:50.483Z,100803.00
2023-02-20T04:00:44.746Z,100808.00
2023-02-20T04:03:18.466Z,100813.00
2023-02-20T04:05:51.068Z,100822.00
2023-02-20T04:08:35.553Z,100815.00
2023-02-20T04:11:07.095Z,100793.00
2023-02-20T04:13:34.881Z,100797.00
2023-02-20T04:16:02.378Z,100806.00
2023-02-20T04:18:30.553Z,100792.00
2023-02-20T04:20:59.450Z,100792.00
2023-02-20T04:23:38.406Z,100777.00
2023-02-20T04:26:09.765Z,100783.00
2023-02-20T04:28:38.622Z,100775.00
2023-02-20T04:31:18.457Z,100768.00
2023-02-20T04:33:47.085Z,100768.00
2023-02-20T04:36:18.937Z,100758.00
2023-02-20T04:38:47.702Z,100757.00
2023-02-20T04:41:17.904Z,100757.00
2023-02-20T04:43:44.934Z,100748.00
2023-02-20T04:46:12.113Z,100753.00
2023-02-20T04:48:39.864Z,100750.00
2023-02-20T04:51:06.513Z,100738.00
2023-02-20T04:53:34.286Z,100733.00
2023-02-20T04:56:00.915Z,100737.00
2023-02-20T04:58:28.332Z,100731.00
2023-02-20T05:01:01.847Z,100729.00
2023-02-20T05:03:28.452Z,100715.00
2023-02-20T05:05:54.968Z,100724.00
2023-02-20T05:08:21.524Z,100715.00
2023-02-20T05:10:48.117Z,100688.00
2023-02-20T05:13:14.671Z,100699.00
2023-02-20T05:15:41.310Z,100701.00
2023-02-20T05:18:08.086Z,100682.00
2023-02-20T05:20:53.111Z,100683.00
2023-02-20T05:23:19.667Z,100670.00
2023-02-20T05:25:46.197Z,100667.00
2023-02-20T05:28:12.751Z,100668.00
2023-02-20T05:30:39.384Z,100685.00
2023-02-20T05:33:06.004Z,100680.00
2023-02-20T05:35:33.169Z,100681.00
2023-02-20T05:37:59.710Z,100690.00
2023-02-20T05:40:26.207Z,100691.00
2023-02-20T05:42:52.753Z,100675.00
2023-02-20T05:45:19.377Z,100675.00
2023-02-20T05:47:45.957Z,100675.00
2023-02-20T05:50:12.510Z,100664.00
2023-02-20T05:52:39.070Z,100660.00
2023-02-20T05:55:05.860Z,100656.00
2023-02-20T05:57:32.447Z,100648.00
2023-02-20T05:59:58.980Z,100657.00
2023-02-20T06:02:25.551Z,100655.00
2023-02-20T06:04:52.354Z,100645.00
2023-02-20T06:07:18.913Z,100634.00
2023-02-20T06:09:45.491Z,100634.00
2023-02-20T06:12:12.435Z,100629.00
2023-02-20T06:14:39.092Z,100626.00
2023-02-20T06:17:05.641Z,100606.00
2023-02-20T06:19:32.250Z,100600.00
2023-02-20T06:21:58.917Z,100601.00
2023-02-20T06:24:25.947Z,100607.00
2023-02-20T06:26:52.769Z,100603.00
2023-02-20T06:29:19.586Z,100593.00
2023-02-20T06:31:46.360Z,100599.00
2023-02-20T06:34:13.751Z,100597.00
2023-02-20T06:36:42.195Z,100607.00
2023-02-20T06:39:11.158Z,100609.00
2023-02-20T06:41:44.541Z,100588.00
2023-02-20T06:44:21.038Z,100598.00
2023-02-20T06:46:47.970Z,100595.00
2023-02-20T06:49:14.666Z,100573.00
2023-02-20T06:51:53.875Z,100582.00
2023-02-20T06:54:24.388Z,100579.00
2023-02-20T06:56:52.486Z,100590.00
2023-02-20T06:59:19.356Z,100582.00
2023-02-20T07:01:45.931Z,100569.00
2023-02-20T07:04:22.554Z,100593.00
2023-02-20T07:06:49.238Z,100591.00
2023-02-20T07:09:16.539Z,100580.00
2023-02-20T07:11:43.647Z,100588.00
2023-02-20T07:14:10.200Z,100570.00
2023-02-20T07:16:36.780Z,100554.00
2023-02-20T07:19:03.408Z,100547.00
2023-02-20T07:21:30.008Z,100525.00
2023-02-20T07:23:56.576Z,100548.00
2023-02-20T07:26:31.390Z,100539.00
2023-02-20T07:28:58.874Z,100550.00
2023-02-20T07:31:25.752Z,100544.00
2023-02-20T07:33:52.733Z,100545.00
2023-02-20T07:36:19.653Z,100549.00
2023-02-20T07:39:00.279Z,100554.00
2023-02-20T07:41:37.321Z,100558.00
2023-02-20T07:44:06.069Z,100562.00
2023-02-20T07:46:34.115Z,100547.00
2023-02-20T07:49:05.009Z,100519.00
2023-02-20T07:51:32.484Z,100529.00
2023-02-20T07:53:59.151Z,100524.00
2023-02-20T07:56:26.170Z,100506.00
2023-02-20T07:58:53.047Z,100510.00
2023-02-20T08:01:19.729Z,100510.00
2023-02-20T08:03:46.393Z,100511.00
2023-02-20T08:06:14.053Z,100527.00
2023-02-20T08:08:40.820Z,100533.00
2023-02-20T08:11:09.839Z,100511.00
2023-02-20T08:13:36.923Z,100473.00
2023-02-20T08:16:03.673Z,100476.00
2023-02-20T08:18:30.212Z,100493.00
2023-02-20T08:20:56.742Z,100478.00
2023-02-20T08:23:24.388Z,100469.00
2023-02-20T08:25:51.919Z,100468.00
2023-02-20T08:28:18.640Z,100461.00
2023-02-20T08:30:45.352Z,100445.00
2023-02-20T08:33:11.948Z,100434.00
2023-02-20T08:35:38.553Z,100437.00
2023-02-20T08:38:07.682Z,100439.00
2023-02-20T08:40:35.037Z,100434.00
2023-02-20T08:43:01.732Z,100431.00
2023-02-20T08:45:28.611Z,100423.00
2023-02-20T08:48:02.153Z,100412.00
2023-02-20T08:50:29.012Z,100419.00
2023-02-20T08:52:55.736Z,100412.00
2023-02-20T08:55:22.470Z,100406.00
2023-02-20T08:57:49.020Z,100405.00
2023-02-20T09:00:17.406Z,100394.00
2023-02-20T09:02:44.023Z,100400.00
2023-02-20T09:05:10.659Z,100380.00
2023-02-20T09:07:37.639Z,100388.00
2023-02-20T09:10:04.893Z,100370.00
2023-02-20T09:12:32.631Z,100355.00
2023-02-20T09:15:02.326Z,100359.00
2023-02-20T09:17:28.855Z,100342.00
2023-02-20T09:19:58.715Z,100355.00
2023-02-20T09:22:26.433Z,100353.00
2023-02-20T09:24:54.153Z,100344.00
2023-02-20T09:27:21.316Z,100335.00
2023-02-20T09:29:48.024Z,100320.00
2023-02-20T09:32:15.239Z,100315.00
2023-02-20T09:34:41.836Z,100299.00
2023-02-20T09:37:08.711Z,100288.00
2023-02-20T09:39:35.440Z,100296.00
2023-02-20T09:42:18.789Z,100286.00
2023-02-20T09:45:04.323Z,100293.00
2023-02-20T09:47:49.162Z,100268.00
2023-02-20T09:50:21.626Z,100288.00
2023-02-20T09:52:59.131Z,100286.00
2023-02-20T09:55:34.358Z,100248.00
2023-02-20T09:58:01.238Z,100251.00
2023-02-20T10:00:31.142Z,100255.00
2023-02-20T10:03:14.000Z,100251.00
2023-02-20T10:05:42.439Z,100262.00
2023-02-20T10:08:16.354Z,100259.00
2023-02-20T10:10:43.101Z,100257.00
2023-02-20T10:13:18.934Z,100271.00
2023-02-20T10:16:05.059Z,100261.00
2023-02-20T10:19:12.744Z,100269.00
2023-02-20T10:21:42.420Z,100254.00
2023-02-20T10:24:14.141Z,100256.00
2023-02-20T10:26:46.302Z,100250.00
2023-02-20T10:29:18.559Z,100253.00
2023-02-20T10:31:49.870Z,100229.00
2023-02-20T10:34:22.268Z,100242.00
2023-02-20T10:36:53.935Z,100239.00
2023-02-20T10:39:22.691Z,100230.00
2023-02-20T10:41:54.675Z,100234.00
2023-02-20T10:44:49.925Z,100234.00
2023-02-20T10:47:21.009Z,100224.00
2023-02-20T10:50:05.050Z,100216.00
2023-02-20T10:52:39.464Z,100214.00
2023-02-20T10:55:13.567Z,100212.00
2023-02-20T10:57:48.169Z,100212.00
2023-02-20T11:00:23.416Z,100192.00
2023-02-20T11:03:05.117Z,100184.00
2023-02-20T11:05:35.646Z,100190.00
2023-02-20T11:08:02.340Z,100185.00
2023-02-20T11:10:28.911Z,100185.00
2023-02-20T11:13:00.623Z,100161.00
2023-02-20T11:15:31.087Z,100162.00
2023-02-20T11:17:59.814Z,100171.00
2023-02-20T11:20:33.076Z,100169.00
2023-02-20T11:23:01.469Z,100177.00
2023-02-20T11:25:31.094Z,100177.00
2023-02-20T11:28:08.891Z,100161.00
2023-02-20T11:30:39.786Z,100184.00
2023-02-20T11:33:17.930Z,100172.00
2023-02-20T11:35:50.489Z,100174.00
2023-02-20T11:38:23.288Z,100178.00
2023-02-20T11:41:02.973Z,100186.00
2023-02-20T11:43:35.014Z,100185.00
2023-02-20T11:46:24.158Z,100176.00
2023-02-20T11:48:57.020Z,100181.00
2023-02-20T11:51:40.634Z,100192.00
2023-02-20T11:54:18.905Z,100183.00
2023-02-20T11:57:19.138Z,100178.00
2023-02-20T11:59:46.268Z,100174.00
2023-02-20T12:02:23.592Z,100179.00
2023-02-20T12:05:04.527Z,100177.00
2023-02-20T12:07:34.432Z,100170.00
2023-02-20T12:10:10.281Z,100171.00
2023-02-20T12:12:36.867Z,100173.00
2023-02-20T12:15:03.760Z,100167.00
2023-02-20T12:17:38.361Z,100161.00
2023-02-20T12:20:24.210Z,100171.00
2023-02-20T12:23:06.693Z,100177.00
2023-02-20T12:25:59.724Z,100162.00
2023-02-20T12:28:58.917Z,100151.00
2023-02-20T12:31:55.257Z,100149.00
2023-02-20T12:34:54.392Z,100156.00
2023-02-20T12:37:42.038Z,100155.00
2023-02-20T12:40:33.629Z,100140.00
2023-02-20T12:43:33.318Z,100144.00
2023-02-20T12:46:21.293Z,100137.00
2023-02-20T12:48:51.650Z,100141.00
2023-02-20T12:51:23.856Z,100136.00
2023-02-20T12:53:50.648Z,100133.00
2023-02-20T12:56:27.389Z,100131.00
2023-02-20T12:59:23.220Z,100131.00
2023-02-20T13:01:52.096Z,100148.00
2023-02-20T13:04:40.856Z,100125.00
2023-02-20T13:07:18.642Z,100153.00
2023-02-20T13:10:04.069Z,100148.00
2023-02-20T13:12:31.009Z,100152.00
2023-02-20T13:15:42.075Z,100163.00
2023-02-20T13:18:20.637Z,100153.00
2023-02-20T13:20:51.754Z,100149.00
2023-02-20T13:23:18.259Z,100162.00
2023-02-20T13:25:48.780Z,100147.00
2023-02-20T13:28:24.276Z,100143.00
2023-02-20T13:31:35.162Z,100163.00
2023-02-20T13:34:04.690Z,100144.00
2023-02-20T13:36:42.750Z,100135.00
2023-02-20T13:39:21.290Z,100140.00
2023-02-20T13:41:56.841Z,100144.00
2023-02-20T13:44:38.906Z,100153.00
2023-02-20T13:47:22.259Z,100159.00
2023-02-20T13:49:58.098Z,100154.00
2023-02-20T13:52:40.011Z,100155.00
2023-02-20T13:55:23.495Z,100165.00
2023-02-20T13:57:52.770Z,100163.00
2023-02-20T14:00:25.311Z,100161.00
2023-02-20T14:02:51.972Z,100159.00
2023-02-20T14:05:26.381Z,100161.00
2023-02-20T14:07:53.358Z,100169.00
2023-02-20T14:10:34.606Z,100163.00
2023-02-20T14:13:11.127Z,100166.00
2023-02-20T14:15:52.774Z,100156.00
2023-02-20T14:18:29.585Z,100165.00
2023-02-20T14:21:20.397Z,100163.00
2023-02-20T14:23:49.132Z,100161.00
2023-02-20T14:26:32.062Z,100176.00
2023-02-20T14:29:00.402Z,100174.00
2023-02-20T14:31:28.341Z,100167.00
2023-02-20T14:34:00.305Z,100178.00
2023-02-20T14:37:02.298Z,100179.00
2023-02-20T14:39:31.322Z,100172.00
2023-02-20T14:42:01.717Z,100190.00
2023-02-20T14:44:30.694Z,100187.00
2023-02-20T14:47:07.267Z,100198.00
2023-02-20T14:49:35.152Z,100190.00
2023-02-20T14:52:25.266Z,100199.00
2023-02-20T14:55:01.605Z,100181.00
2023-02-20T14:57:29.532Z,100172.00
2023-02-20T15:00:20.495Z,100168.00
2023-02-20T15:02:51.164Z,100158.00
2023-02-20T15:05:21.251Z,100159.00
2023-02-20T15:07:48.261Z,100162.00
2023-02-20T15:11:38.945Z,100160.00
2023-02-20T15:14:19.353Z,100159.00
2023-02-20T15:16:46.462Z,100161.00
2023-02-20T15:19:34.644Z,100156.00
2023-02-20T15:22:01.416Z,100151.00
2023-02-20T15:24:37.336Z,100146.00
2023-02-20T15:27:11.783Z,100146.00
2023-02-20T15:29:38.976Z,100144.00
2023-02-20T15:32:15.857Z,100135.00
2023-02-20T15:34:42.907Z,100122.00
2023-02-20T15:37:49.203Z,100146.00
2023-02-20T15:40:21.189Z,100141.00
2023-02-20T15:42:48.303Z,100138.00
2023-02-20T15:45:15.247Z,100141.00
2023-02-20T15:47:42.389Z,100143.00
2023-02-20T15:50:10.151Z,100147.00
2023-02-20T15:52:36.966Z,100138.00
2023-02-20T15:55:04.258Z,100143.00
2023-02-20T15:57:31.222Z,100136.00
2023-02-20T15:59:58.342Z,100146.00
2023-02-20T16:02:25.221Z,100144.00
2023-02-20T16:04:52.422Z,100140.00
2023-02-20T16:07:20.267Z,100145.00
2023-02-20T16:09:46.994Z,100142.00
2023-02-20T16:12:17.237Z,100130.00
2023-02-20T16:14:44.243Z,100136.00
2023-02-20T16:17:24.613Z,100149.00
2023-02-20T16:19:51.667Z,100142.00
2023-02-20T16:22:18.474Z,100144.00
2023-02-20T16:24:47.077Z,100124.00
2023-02-20T16:27:27.105Z,100143.00
2023-02-20T16:29:54.440Z,100145.00
2023-02-20T16:32:28.248Z,100146.00
2023-02-20T16:34:57.184Z,100154.00
2023-02-20T16:37:24.030Z,100142.00
2023-02-20T16:39:51.260Z,100162.00
2023-02-20T16:42:22.714Z,100145.00
2023-02-20T16:44:49.929Z,100150.00
2023-02-20T16:47:19.449Z,100148.00
2023-02-20T16:49:46.397Z,100154.00
2023-02-20T16:52:32.911Z,100144.00
2023-02-20T16:55:01.215Z,100150.00
2023-02-20T16:57:27.826Z,100147.00
2023-02-20T16:59:57.573Z,100147.00
2023-02-20T17:02:27.621Z,100140.00
2023-02-20T17:04:54.550Z,100155.00
2023-02-20T17:07:21.687Z,100150.00
2023-02-20T17:09:48.416Z,100161.00
2023-02-20T17:12:17.815Z,100162.00
2023-02-20T17:14:45.143Z,100159.00
2023-02-20T17:17:11.927Z,100161.00
2023-02-20T17:19:40.135Z,100153.00
2023-02-20T17:22:07.400Z,100176.00
2023-02-20T17:24:34.387Z,100185.00
2023-02-20T17:27:02.064Z,100170.00
2023-02-20T17:29:28.689Z,100161.00
2023-02-20T17:31:55.453Z,100163.00
2023-02-20T17:34:22.398Z,100165.00
2023-02-20T17:36:51.941Z,100156.00
2023-02-20T17:39:21.698Z,100174.00
2023-02-20T17:41:49.923Z,100156.00
2023-02-20T17:44:30.571Z,100153.00
2023-02-20T17:47:01.395Z,100167.00
2023-02-20T17:49:28.422Z,100149.00
2023-02-20T17:51:58.900Z,100177.00
2023-02-20T17:54:26.207Z,100148.00
2023-02-20T17:56:53.735Z,100168.00
2023-02-20T17:59:21.401Z,100169.00
2023-02-20T18:01:47.960Z,100168.00
2023-02-20T18:04:14.608Z,100176.00
2023-02-20T18:06:41.451Z,100165.00
2023-02-20T18:09:09.161Z,100177.00
2023-02-20T18:11:36.575Z,100173.00
2023-02-20T18:14:03.444Z,100172.00
2023-02-20T18:16:30.083Z,100161.00
2023-02-20T18:18:56.718Z,100171.00
2023-02-20T18:21:26.091Z,100172.00
2023-02-20T18:23:52.984Z,100169.00
2023-02-20T18:26:19.778Z,100147.00
2023-02-20T18:28:47.783Z,100165.00
2023-02-20T18:31:15.732Z,100151.00
2023-02-20T18:33:42.728Z,100148.00
2023-02-20T18:36:09.429Z,100155.00
2023-02-20T18:38:36.658Z,100153.00
2023-02-20T18:41:03.474Z,100156.00
2023-02-20T18:43:30.388Z,100158.00
2023-02-20T18:46:30.891Z,100147.00
2023-02-20T18:48:58.946Z,100155.00
2023-02-20T18:51:32.166Z,100150.00
2023-02-20T18:53:59.051Z,100149.00
2023-02-20T18:56:26.256Z,100152.00
2023-02-20T18:58:53.818Z,100152.00
2023-02-20T19:01:24.296Z,100149.00
2023-02-20T19:03:53.381Z,100154.00
2023-02-20T19:06:34.305Z,100154.00
2023-02-20T19:09:01.767Z,100153.00
2023-02-20T19:11:28.864Z,100144.00
2023-02-20T19:13:55.476Z,100133.00
2023-02-20T19:16:22.394Z,100147.00
2023-02-20T19:18:51.082Z,100132.00
2023-02-20T19:21:18.298Z,100133.00
2023-02-20T19:23:45.795Z,100124.00
2023-02-20T19:26:12.981Z,100126.00
2023-02-20T19:28:42.281Z,100131.00
2023-02-20T19:31:10.224Z,100118.00
2023-02-20T19:33:36.823Z,100116.00
2023-02-20T19:36:04.147Z,100121.00
2023-02-20T19:38:30.755Z,100106.00
2023-02-20T19:40:57.310Z,100106.00
2023-02-20T19:43:26.121Z,100120.00
2023-02-20T19:45:52.674Z,100108.00
2023-02-20T19:48:19.214Z,100123.00
2023-02-20T19:50:45.754Z,100118.00
2023-02-20T19:53:12.499Z,100131.00
2023-02-20T19:55:39.129Z,100104.00
2023-02-20T19:58:05.724Z,100103.00
2023-02-20T20:00:32.410Z,100116.00
2023-02-20T20:03:01.700Z,100100.00
2023-02-20T20:05:28.641Z,100103.00
2023-02-20T20:07:55.328Z,100115.00
2023-02-20T20:10:22.907Z,100101.00
2023-02-20T20:12:49.661Z,100112.00
2023-02-20T20:15:18.388Z,100122.00
2023-02-20T20:17:49.790Z,100123.00
2023-02-20T20:20:18.736Z,100128.00
2023-02-20T20:22:46.385Z,100120.00
2023-02-20T20:25:16.905Z,100123.00
2023-02-20T20:27:43.535Z,100115.00
2023-02-20T20:30:15.975Z,100106.00
2023-02-20T20:32:42.597Z,100112.00
2023-02-20T20:35:09.153Z,100112.00
2023-02-20T20:37:35.749Z,100108.00
2023-02-20T20:40:02.549Z,100115.00
2023-02-20T20:42:29.261Z,100103.00
2023-02-20T20:44:57.798Z,100116.00
2023-02-20T20:47:26.451Z,100104.00
2023-02-20T20:49:54.622Z,100112.00
2023-02-20T20:52:24.597Z,100112.00
2023-02-20T20:54:55.503Z,100106.00
2023-02-20T20:57:24.931Z,100104.00
2023-02-20T20:59:51.692Z,100107.00
2023-02-20T21:02:19.700Z,100112.00
2023-02-20T21:04:49.168Z,100093.00
2023-02-20T21:07:16.122Z,100099.00
2023-02-20T21:09:43.003Z,100095.00
2023-02-20T21:12:10.626Z,100082.00
2023-02-20T21:14:39.983Z,100088.00
2023-02-20T21:17:07.348Z,100085.00
2023-02-20T21:19:33.952Z,100090.00
2023-02-20T21:22:00.653Z,100099.00
2023-02-20T21:24:27.227Z,100084.00
2023-02-20T21:26:53.982Z,100097.00
2023-02-20T21:29:20.598Z,100096.00
2023-02-20T21:31:47.504Z,100088.00
2023-02-20T21:34:15.900Z,100086.00
2023-02-20T21:36:43.786Z,100092.00
2023-02-20T21:39:10.413Z,100094.00
2023-02-20T21:41:55.579Z,100096.00
2023-02-20T21:44:27.219Z,100106.00
2023-02-20T21:46:59.210Z,100097.00
2023-02-20T21:49:27.430Z,100109.00
2023-02-20T21:51:54.634Z,100110.00
2023-02-20T21:54:23.784Z,100090.00
2023-02-20T21:56:50.425Z,100087.00
2023-02-20T21:59:16.974Z,100075.00
2023-02-20T22:01:43.540Z,100081.00
2023-02-20T22:04:11.903Z,100078.00
2023-02-20T22:06:38.606Z,100101.00
2023-02-20T22:09:24.193Z,100086.00
2023-02-20T22:12:08.960Z,100099.00
2023-02-20T22:14:54.322Z,100100.00
2023-02-20T22:17:39.825Z,100087.00
2023-02-20T22:20:25.606Z,100107.00
2023-02-20T22:23:10.475Z,100083.00
2023-02-20T22:25:55.452Z,100096.00
2023-02-20T22:28:42.601Z,100101.00
2023-02-20T22:31:28.034Z,100082.00
2023-02-20T22:34:13.181Z,100096.00
2023-02-20T22:36:58.035Z,100089.00
2023-02-20T22:39:43.131Z,100092.00
2023-02-20T22:42:34.583Z,100090.00
2023-02-20T22:45:20.341Z,100097.00
2023-02-20T22:48:05.227Z,100119.00
2023-02-20T22:50:50.027Z,100109.00
2023-02-20T22:53:35.177Z,100115.00
2023-02-20T22:56:19.976Z,100122.00
2023-02-20T22:59:05.321Z,100124.00
2023-02-20T23:01:50.666Z,100125.00
2023-02-20T23:04:35.752Z,100126.00
2023-02-20T23:07:21.142Z,100135.00
2023-02-20T23:10:06.254Z,100133.00
2023-02-20T23:12:51.142Z,100134.00
2023-02-20T23:15:35.979Z,100135.00
2023-02-20T23:18:20.960Z,100147.00
2023-02-20T23:21:05.880Z,100144.00
2023-02-20T23:23:50.667Z,100147.00
2023-02-20T23:26:36.229Z,100137.00
2023-02-20T23:29:21.477Z,100142.00
2023-02-20T23:32:06.387Z,100142.00
2023-02-20T23:34:51.593Z,100129.00
2023-02-20T23:37:36.820Z,100145.00
2023-02-20T23:40:34.598Z,100134.00
2023-02-20T23:43:22.263Z,100143.00
2023-02-20T23:46:07.261Z,100133.00
2023-02-20T23:48:52.383Z,100125.00
2023-02-20T23:51:37.480Z,100128.00
2023-02-20T23:54:22.914Z,100136.00
2023-02-20T23:57:08.094Z,100123.00
2023-02-20T23:59:53.139Z,100129.00
